createdAt,value
2023-04-12T00:02:01.143Z,7.50
2023-04-12T00:04:30.621Z,7.60
2023-04-12T00:07:01.174Z,7.60
2023-04-12T00:09:30.700Z,7.70
2023-04-12T00:11:59.616Z,7.70
2023-04-12T00:14:27.568Z,7.70
2023-04-12T00:16:55.706Z,7.70
2023-04-12T00:19:27.703Z,7.70
2023-04-12T00:21:57.070Z,7.70
2023-04-12T00:24:27.363Z,7.60
2023-04-12T00:26:56.319Z,7.60
2023-04-12T00:29:24.237Z,7.50
2023-04-12T00:31:52.227Z,7.50
2023-04-12T00:34:20.215Z,7.60
2023-04-12T00:36:48.134Z,7.60
2023-04-12T00:39:17.560Z,7.60
2023-04-12T00:41:45.622Z,7.70
2023-04-12T00:44:13.663Z,7.70
2023-04-12T00:46:42.518Z,7.70
2023-04-12T00:49:12.347Z,7.70
2023-04-12T00:51:41.529Z,7.80
2023-04-12T00:54:09.527Z,7.70
2023-04-12T00:56:40.775Z,7.80
2023-04-12T00:59:08.996Z,7.80
2023-04-12T01:01:38.358Z,7.80
2023-04-12T01:04:06.717Z,7.80
2023-04-12T01:06:48.350Z,7.80
2023-04-12T01:09:24.553Z,7.80
2023-04-12T01:12:07.321Z,7.80
2023-04-12T01:14:46.753Z,7.80
2023-04-12T01:17:20.854Z,7.80
2023-04-12T01:19:57.927Z,7.80
2023-04-12T01:22:50.245Z,7.80
2023-04-12T01:25:34.335Z,7.70
2023-04-12T01:28:05.653Z,7.70
2023-04-12T01:30:34.611Z,7.60
2023-04-12T01:33:06.652Z,7.60
2023-04-12T01:35:35.473Z,7.60
2023-04-12T01:38:05.133Z,7.60
2023-04-12T01:40:33.397Z,7.60
2023-04-12T01:43:09.934Z,7.50
2023-04-12T01:45:37.919Z,7.50
2023-04-12T01:48:09.150Z,7.50
2023-04-12T01:50:44.796Z,7.40
2023-04-12T01:53:19.162Z,7.40
2023-04-12T01:55:48.353Z,7.40
2023-04-12T01:58:21.879Z,7.30
2023-04-12T02:00:51.024Z,7.30
2023-04-12T02:03:21.967Z,7.30
2023-04-12T02:05:51.350Z,7.50
2023-04-12T02:08:19.616Z,7.10
2023-04-12T02:10:47.571Z,7.30
2023-04-12T02:13:18.168Z,7.30
2023-04-12T02:15:46.181Z,7.30
2023-04-12T02:18:17.020Z,7.30
2023-04-12T02:20:45.077Z,7.20
2023-04-12T02:23:13.264Z,7.20
2023-04-12T02:25:41.397Z,7.20
2023-04-12T02:28:09.377Z,7.20
2023-04-12T02:30:38.716Z,7.20
2023-04-12T02:33:09.466Z,7.20
2023-04-12T02:35:37.659Z,7.10
2023-04-12T02:38:08.547Z,7.20
2023-04-12T02:40:39.757Z,7.30
2023-04-12T02:43:08.526Z,7.30
2023-04-12T02:45:38.046Z,7.30
2023-04-12T02:48:06.436Z,8.40
2023-04-12T02:50:34.598Z,7.30
2023-04-12T02:53:02.601Z,7.30
2023-04-12T02:55:30.874Z,9.00
2023-04-12T02:57:59.326Z,7.30
2023-04-12T03:00:27.873Z,7.60
2023-04-12T03:02:59.130Z,8.20
2023-04-12T03:05:27.500Z,7.40
2023-04-12T03:07:55.826Z,7.50
2023-04-12T03:10:23.982Z,8.80
2023-04-12T03:12:52.025Z,7.50
2023-04-12T03:15:22.093Z,7.60
2023-04-12T03:17:50.226Z,7.50
2023-04-12T03:20:20.375Z,7.50
2023-04-12T03:22:48.435Z,7.60
2023-04-12T03:25:17.952Z,7.80
2023-04-12T03:27:45.927Z,7.50
2023-04-12T03:30:14.613Z,7.50
2023-04-12T03:32:43.521Z,7.50
2023-04-12T03:35:12.198Z,7.50
2023-04-12T03:37:43.151Z,7.50
2023-04-12T03:40:11.823Z,7.50
2023-04-12T03:42:39.941Z,7.50
2023-04-12T03:45:09.039Z,7.40
2023-04-12T03:47:37.161Z,7.40
2023-04-12T03:50:16.259Z,7.40
2023-04-12T03:52:46.054Z,7.40
2023-04-12T03:55:18.099Z,7.40
2023-04-12T03:57:46.479Z,7.50
2023-04-12T04:00:15.534Z,7.60
2023-04-12T04:02:43.575Z,7.60
2023-04-12T04:05:13.237Z,7.50
2023-04-12T04:07:41.325Z,7.50
2023-04-12T04:10:11.752Z,7.50
2023-04-12T04:12:39.795Z,7.50
2023-04-12T04:15:08.770Z,7.50
2023-04-12T04:17:37.055Z,7.50
2023-04-12T04:20:07.167Z,7.50
2023-04-12T04:22:35.300Z,7.40
2023-04-12T04:25:03.945Z,7.40
2023-04-12T04:27:34.286Z,7.50
2023-04-12T04:30:02.832Z,7.50
2023-04-12T04:32:31.739Z,7.50
2023-04-12T04:35:00.639Z,7.50
2023-04-12T04:37:30.653Z,7.50
2023-04-12T04:39:58.983Z,7.50
2023-04-12T04:42:27.060Z,7.60
2023-04-12T04:45:02.692Z,7.60
2023-04-12T04:47:31.273Z,7.60
2023-04-12T04:50:00.948Z,7.70
2023-04-12T04:52:29.277Z,7.80
2023-04-12T04:54:58.203Z,7.80
2023-04-12T04:57:26.860Z,7.80
2023-04-12T04:59:56.179Z,7.80
2023-04-12T05:02:24.449Z,7.80
2023-04-12T05:04:52.484Z,7.80
2023-04-12T05:07:20.652Z,7.90
2023-04-12T05:09:48.622Z,7.90
2023-04-12T05:12:16.641Z,7.90
2023-04-12T05:14:48.166Z,7.90
2023-04-12T05:17:20.808Z,7.90
2023-04-12T05:19:48.753Z,7.90
2023-04-12T05:22:26.726Z,7.90
2023-04-12T05:25:03.303Z,7.50
2023-04-12T05:27:32.646Z,7.90
2023-04-12T05:30:06.021Z,7.90
2023-04-12T05:32:35.749Z,8.00
2023-04-12T05:35:12.506Z,8.00
2023-04-12T05:37:40.793Z,8.00
2023-04-12T05:40:10.649Z,8.10
2023-04-12T05:42:38.596Z,8.10
2023-04-12T05:45:07.733Z,8.20
2023-04-12T05:47:38.552Z,8.20
2023-04-12T05:50:08.025Z,8.20
2023-04-12T05:52:37.453Z,8.30
2023-04-12T05:55:06.066Z,8.30
2023-04-12T05:57:34.021Z,8.30
2023-04-12T06:00:02.071Z,8.30
2023-04-12T06:02:30.879Z,8.30
2023-04-12T06:05:00.839Z,8.30
2023-04-12T06:07:29.008Z,8.40
2023-04-12T06:09:56.927Z,8.40
2023-04-12T06:12:24.818Z,8.40
2023-04-12T06:14:52.799Z,8.40
2023-04-12T06:17:20.770Z,8.30
2023-04-12T06:19:49.048Z,8.20
2023-04-12T06:22:18.418Z,8.10
2023-04-12T06:24:46.426Z,8.20
2023-04-12T06:27:14.319Z,8.20
2023-04-12T06:29:42.363Z,8.20
2023-04-12T06:32:10.586Z,8.20
2023-04-12T06:34:38.503Z,8.20
2023-04-12T06:37:06.469Z,8.10
2023-04-12T06:39:36.034Z,8.10
2023-04-12T06:42:04.014Z,8.20
2023-04-12T06:44:33.425Z,8.20
2023-04-12T06:47:01.596Z,8.20
2023-04-12T06:49:29.669Z,8.20
2023-04-12T06:51:57.672Z,8.30
2023-04-12T06:54:25.897Z,8.20
2023-04-12T06:56:56.480Z,8.30
2023-04-12T06:59:24.810Z,8.30
2023-04-12T07:01:52.964Z,8.40
2023-04-12T07:04:21.276Z,8.40
2023-04-12T07:06:49.370Z,8.40
2023-04-12T07:09:17.337Z,8.40
2023-04-12T07:11:45.256Z,8.30
2023-04-12T07:14:14.674Z,8.10
2023-04-12T07:16:43.895Z,8.00
2023-04-12T07:19:12.594Z,8.00
2023-04-12T07:21:40.533Z,7.90
2023-04-12T07:24:08.690Z,8.00
2023-04-12T07:26:36.751Z,8.00
2023-04-12T07:29:05.459Z,8.00
2023-04-12T07:31:35.882Z,8.00
2023-04-12T07:34:03.932Z,8.00
2023-04-12T07:36:32.176Z,8.10
2023-04-12T07:39:00.342Z,8.10
2023-04-12T07:41:28.780Z,8.10
2023-04-12T07:43:56.737Z,8.20
2023-04-12T07:46:24.708Z,8.20
2023-04-12T07:48:54.366Z,8.30
2023-04-12T07:51:22.384Z,8.40
2023-04-12T07:53:50.396Z,8.50
2023-04-12T07:56:18.315Z,8.60
2023-04-12T07:58:46.248Z,8.70
2023-04-12T08:01:14.598Z,8.80
2023-04-12T08:03:42.622Z,8.70
2023-04-12T08:06:12.253Z,8.70
2023-04-12T08:08:40.631Z,8.70
2023-04-12T08:11:08.638Z,8.80
2023-04-12T08:13:36.639Z,8.90
2023-04-12T08:16:05.173Z,9.10
2023-04-12T08:18:33.262Z,9.20
2023-04-12T08:21:01.832Z,9.30
2023-04-12T08:23:31.394Z,9.40
2023-04-12T08:26:03.650Z,9.50
2023-04-12T08:28:32.613Z,9.60
2023-04-12T08:31:01.089Z,9.70
2023-04-12T08:33:29.200Z,9.70
2023-04-12T08:35:57.183Z,9.70
2023-04-12T08:38:37.103Z,9.80
2023-04-12T08:41:11.123Z,9.90
2023-04-12T08:43:42.028Z,10.00
2023-04-12T08:46:10.841Z,10.00
2023-04-12T08:48:41.005Z,10.00
2023-04-12T08:51:10.879Z,10.00
2023-04-12T08:53:40.224Z,10.00
2023-04-12T08:56:11.694Z,10.00
2023-04-12T08:58:41.718Z,9.90
2023-04-12T09:01:14.270Z,9.70
2023-04-12T09:03:42.901Z,9.40
2023-04-12T09:06:14.438Z,9.40
2023-04-12T09:08:57.296Z,9.50
2023-04-12T09:11:28.274Z,9.50
2023-04-12T09:13:57.658Z,9.50
2023-04-12T09:16:36.994Z,9.30
2023-04-12T09:19:05.624Z,9.20
2023-04-12T09:21:34.753Z,9.10
2023-04-12T09:24:11.616Z,9.00
2023-04-12T09:26:42.993Z,9.00
2023-04-12T09:29:25.367Z,9.00
2023-04-12T09:31:57.858Z,9.00
2023-04-12T09:34:27.343Z,8.80
2023-04-12T09:36:55.937Z,8.70
2023-04-12T09:39:33.067Z,8.50
2023-04-12T09:42:25.598Z,8.50
2023-04-12T09:45:01.532Z,8.50
2023-04-12T09:47:40.215Z,8.40
2023-04-12T09:50:10.096Z,8.40
2023-04-12T09:52:39.377Z,8.40
2023-04-12T09:55:10.930Z,8.30
2023-04-12T09:57:43.015Z,8.30
2023-04-12T10:00:17.355Z,8.30
2023-04-12T10:02:47.794Z,8.30
2023-04-12T10:05:18.472Z,8.50
2023-04-12T10:07:47.161Z,8.40
2023-04-12T10:10:17.355Z,8.40
2023-04-12T10:12:48.447Z,8.40
2023-04-12T10:15:18.388Z,8.60
2023-04-12T10:17:48.687Z,8.60
2023-04-12T10:20:18.588Z,8.60
2023-04-12T10:22:48.245Z,8.70
2023-04-12T10:25:18.482Z,8.80
2023-04-12T10:27:49.336Z,9.00
2023-04-12T10:30:23.463Z,9.10
2023-04-12T10:33:07.808Z,9.20
2023-04-12T10:35:52.212Z,9.00
2023-04-12T10:38:20.560Z,8.80
2023-04-12T10:41:14.519Z,8.70
2023-04-12T10:43:44.580Z,8.90
2023-04-12T10:46:50.380Z,9.00
2023-04-12T10:49:19.149Z,9.20
2023-04-12T10:52:15.900Z,9.30
2023-04-12T10:54:43.930Z,9.40
2023-04-12T10:57:43.348Z,9.40
2023-04-12T11:00:14.549Z,9.60
2023-04-12T11:03:09.990Z,9.70
2023-04-12T11:06:09.280Z,9.80
2023-04-12T11:08:41.586Z,9.80
2023-04-12T11:11:22.874Z,9.80
2023-04-12T11:13:56.995Z,9.90
2023-04-12T11:16:26.507Z,10.00
2023-04-12T11:18:55.651Z,10.10
2023-04-12T11:21:23.807Z,9.90
2023-04-12T11:23:53.668Z,9.80
2023-04-12T11:26:22.564Z,9.80
2023-04-12T11:28:53.200Z,9.70
2023-04-12T11:31:21.863Z,9.70
2023-04-12T11:33:51.211Z,9.70
2023-04-12T11:36:19.280Z,9.70
2023-04-12T11:38:50.289Z,9.70
2023-04-12T11:41:18.577Z,9.70
2023-04-12T11:43:47.317Z,9.80
2023-04-12T11:46:15.399Z,9.80
2023-04-12T11:48:46.865Z,10.00
2023-04-12T11:51:27.676Z,10.10
2023-04-12T11:53:57.501Z,10.10
2023-04-12T11:56:26.374Z,9.90
2023-04-12T11:58:54.517Z,10.00
2023-04-12T12:01:23.997Z,10.10
2023-04-12T12:03:52.449Z,10.30
2023-04-12T12:06:21.779Z,10.40
2023-04-12T12:08:52.934Z,10.30
2023-04-12T12:11:21.526Z,10.20
2023-04-12T12:13:50.982Z,10.20
2023-04-12T12:16:19.839Z,10.20
2023-04-12T12:18:52.512Z,10.20
2023-04-12T12:21:21.016Z,10.40
2023-04-12T12:23:51.280Z,10.50
2023-04-12T12:26:22.934Z,10.60
2023-04-12T12:28:52.434Z,10.60
2023-04-12T12:31:22.536Z,10.60
2023-04-12T12:33:52.586Z,10.80
2023-04-12T12:36:21.379Z,10.90
2023-04-12T12:38:51.467Z,11.10
2023-04-12T12:41:22.422Z,11.20
2023-04-12T12:43:52.117Z,11.20
2023-04-12T12:46:21.512Z,11.30
2023-04-12T12:48:49.891Z,11.30
2023-04-12T12:51:19.610Z,11.20
2023-04-12T12:53:48.099Z,11.20
2023-04-12T12:56:16.726Z,11.20
2023-04-12T12:58:46.767Z,11.10
2023-04-12T13:01:14.893Z,11.10
2023-04-12T13:03:43.025Z,11.10
2023-04-12T13:06:11.117Z,11.20
2023-04-12T13:08:39.145Z,11.20
2023-04-12T13:11:07.839Z,11.30
2023-04-12T13:13:36.420Z,11.40
2023-04-12T13:16:06.610Z,11.30
2023-04-12T13:18:34.595Z,11.30
2023-04-12T13:21:02.606Z,11.50
2023-04-12T13:23:30.850Z,11.60
2023-04-12T13:25:58.795Z,11.80
2023-04-12T13:28:26.849Z,11.90
2023-04-12T13:30:54.786Z,11.80
2023-04-12T13:33:24.391Z,11.70
2023-04-12T13:35:52.585Z,11.50
2023-04-12T13:38:20.894Z,11.40
2023-04-12T13:40:49.103Z,11.40
2023-04-12T13:43:17.107Z,11.50
2023-04-12T13:45:45.169Z,11.60
2023-04-12T13:48:13.215Z,12.00
2023-04-12T13:50:42.524Z,12.50
2023-04-12T13:53:10.461Z,12.90
2023-04-12T13:55:38.401Z,13.10
2023-04-12T13:58:06.370Z,13.10
2023-04-12T14:00:34.385Z,13.00
2023-04-12T14:03:02.585Z,12.80
2023-04-12T14:07:59.971Z,12.70
2023-04-12T14:10:27.882Z,12.60
2023-04-12T14:12:55.969Z,12.60
2023-04-12T14:15:24.040Z,12.70
2023-04-12T14:17:52.329Z,12.80
2023-04-12T14:20:20.608Z,12.90
2023-04-12T14:22:48.597Z,12.90
2023-04-12T14:25:18.022Z,12.80
2023-04-12T14:27:46.272Z,12.80
2023-04-12T14:30:16.390Z,12.80
2023-04-12T14:32:47.299Z,12.80
2023-04-12T14:35:15.668Z,12.60
2023-04-12T14:37:43.849Z,12.70
2023-04-12T14:40:12.554Z,12.70
2023-04-12T14:42:41.938Z,12.80
2023-04-12T14:45:11.973Z,13.00
2023-04-12T14:47:40.721Z,13.20
2023-04-12T14:50:09.458Z,13.30
2023-04-12T14:52:37.408Z,13.50
2023-04-12T14:55:05.937Z,13.60
2023-04-12T14:57:35.733Z,13.80
2023-04-12T15:00:12.454Z,13.90
2023-04-12T15:02:40.698Z,14.00
2023-04-12T15:05:09.853Z,14.10
2023-04-12T15:07:38.495Z,14.10
2023-04-12T15:10:07.575Z,13.90
2023-04-12T15:12:37.699Z,13.60
2023-04-12T15:15:10.626Z,13.50
2023-04-12T15:17:38.698Z,13.60
2023-04-12T15:20:11.627Z,13.60
2023-04-12T15:22:41.240Z,13.70
2023-04-12T15:25:13.367Z,13.80
2023-04-12T15:27:44.272Z,13.90
2023-04-12T15:30:18.554Z,14.00
2023-04-12T15:32:47.061Z,14.00
2023-04-12T15:35:25.833Z,14.00
2023-04-12T15:37:56.760Z,14.10
2023-04-12T15:40:26.514Z,14.10
2023-04-12T15:42:58.318Z,14.20
2023-04-12T15:50:16.796Z,14.10
2023-04-12T15:52:46.378Z,14.10
2023-04-12T15:55:17.116Z,14.30
2023-04-12T15:57:45.204Z,14.20
2023-04-12T16:00:21.053Z,14.30
2023-04-12T16:02:53.518Z,14.30
2023-04-12T16:05:22.350Z,14.30
2023-04-12T16:07:52.002Z,14.20
2023-04-12T16:10:21.232Z,14.30
2023-04-12T16:12:50.254Z,14.40
2023-04-12T16:15:19.667Z,14.40
2023-04-12T16:17:48.464Z,14.40
2023-04-12T16:20:21.691Z,14.20
2023-04-12T16:22:54.428Z,14.30
2023-04-12T16:25:24.561Z,14.10
2023-04-12T16:27:53.312Z,14.10
2023-04-12T16:30:23.108Z,14.10
2023-04-12T16:32:52.191Z,14.00
2023-04-12T16:35:20.602Z,13.80
2023-04-12T16:37:48.705Z,13.80
2023-04-12T16:40:18.864Z,13.70
2023-04-12T16:42:46.990Z,13.50
2023-04-12T16:45:15.560Z,13.30
2023-04-12T16:47:43.720Z,13.20
2023-04-12T16:50:13.579Z,13.00
2023-04-12T16:52:42.122Z,12.90
2023-04-12T16:55:12.330Z,12.80
2023-04-12T16:57:44.211Z,12.50
2023-04-12T17:00:23.586Z,12.40
2023-04-12T17:02:53.334Z,12.00
2023-04-12T17:05:22.505Z,11.80
2023-04-12T17:07:53.541Z,11.40
2023-04-12T17:10:23.067Z,11.10
2023-04-12T17:12:54.613Z,11.10
2023-04-12T17:15:23.043Z,10.80
2023-04-12T17:17:52.679Z,10.90
2023-04-12T17:20:22.238Z,10.90
2023-04-12T17:22:56.612Z,10.90
2023-04-12T17:25:25.871Z,11.00
2023-04-12T17:27:56.742Z,11.10
2023-04-12T17:30:24.910Z,11.30
2023-04-12T17:32:53.419Z,11.40
2023-04-12T17:35:21.736Z,11.50
2023-04-12T17:37:49.768Z,11.50
2023-04-12T17:40:18.445Z,11.50
2023-04-12T17:42:46.441Z,11.50
2023-04-12T17:45:18.432Z,11.40
2023-04-12T17:47:46.447Z,11.40
2023-04-12T17:50:15.103Z,11.40
2023-04-12T17:52:43.110Z,11.40
2023-04-12T17:55:12.293Z,11.30
2023-04-12T17:57:40.439Z,11.30
2023-04-12T18:00:11.915Z,11.30
2023-04-12T18:02:41.806Z,11.30
2023-04-12T18:05:10.632Z,11.20
2023-04-12T18:07:40.061Z,11.20
2023-04-12T18:10:09.835Z,11.20
2023-04-12T18:12:38.809Z,11.10
2023-04-12T18:15:08.351Z,11.10
2023-04-12T18:17:36.985Z,11.00
2023-04-12T18:20:10.135Z,11.00
2023-04-12T18:22:38.423Z,10.90
2023-04-12T18:25:07.428Z,10.80
2023-04-12T18:27:35.750Z,10.80
2023-04-12T18:30:04.957Z,10.80
2023-04-12T18:32:33.238Z,10.80
2023-04-12T18:35:02.458Z,10.80
2023-04-12T18:37:31.798Z,10.70
2023-04-12T18:39:59.731Z,10.70
2023-04-12T18:42:27.759Z,10.70
2023-04-12T18:44:56.531Z,10.60
2023-04-12T18:47:24.698Z,10.70
2023-04-12T18:49:53.445Z,10.70
2023-04-12T18:52:21.470Z,10.60
2023-04-12T18:54:50.835Z,10.60
2023-04-12T18:57:19.229Z,10.70
2023-04-12T18:59:48.918Z,10.70
2023-04-12T19:02:18.384Z,10.60
2023-04-12T19:04:46.710Z,10.70
2023-04-12T19:07:15.317Z,10.70
2023-04-12T19:09:43.268Z,10.70
2023-04-12T19:12:12.530Z,10.60
2023-04-12T19:14:40.431Z,10.60
2023-04-12T19:17:08.365Z,10.60
2023-04-12T19:19:38.923Z,10.60
2023-04-12T19:22:06.925Z,10.60
2023-04-12T19:24:34.883Z,10.60
2023-04-12T19:27:03.617Z,10.60
2023-04-12T19:29:34.545Z,10.60
2023-04-12T19:32:05.383Z,10.50
2023-04-12T19:34:34.079Z,10.50
2023-04-12T19:37:02.027Z,11.10
2023-04-12T19:39:29.969Z,10.50
2023-04-12T19:41:57.995Z,10.50
2023-04-12T19:44:26.368Z,10.50
2023-04-12T19:46:55.693Z,10.40
2023-04-12T19:49:23.970Z,10.40
2023-04-12T19:51:52.072Z,10.40
2023-04-12T19:54:23.485Z,10.40
2023-04-12T19:56:52.613Z,10.40
2023-04-12T19:59:21.014Z,10.40
2023-04-12T20:01:49.070Z,10.40
2023-04-12T20:04:20.090Z,10.40
2023-04-12T20:06:48.541Z,10.30
2023-04-12T20:09:17.296Z,10.30
2023-04-12T20:11:45.461Z,10.40
2023-04-12T20:14:13.373Z,10.30
2023-04-12T20:16:42.666Z,10.30
2023-04-12T20:19:11.216Z,10.30
2023-04-12T20:21:40.669Z,10.30
2023-04-12T20:24:09.351Z,10.30
2023-04-12T20:26:37.472Z,10.30
2023-04-12T20:29:06.653Z,10.40
2023-04-12T20:31:38.161Z,10.30
2023-04-12T20:34:06.294Z,10.20
2023-04-12T20:36:34.605Z,10.20
2023-04-12T20:39:05.673Z,10.20
2023-04-12T20:41:38.151Z,10.20
2023-04-12T20:44:06.545Z,10.20
2023-04-12T20:46:36.915Z,10.10
2023-04-12T20:49:06.677Z,10.10
2023-04-12T20:51:34.738Z,10.00
2023-04-12T20:54:04.211Z,10.00
2023-04-12T20:56:32.206Z,9.80
2023-04-12T20:59:00.694Z,9.80
2023-04-12T21:01:28.743Z,9.70
2023-04-12T21:03:59.708Z,9.70
2023-04-12T21:06:28.366Z,9.70
2023-04-12T21:08:56.521Z,9.80
2023-04-12T21:11:27.343Z,9.80
2023-04-12T21:13:55.363Z,9.90
2023-04-12T21:16:25.316Z,9.90
2023-04-12T21:18:54.577Z,9.90
2023-04-12T21:21:22.526Z,9.90
2023-04-12T21:23:51.512Z,9.90
2023-04-12T21:26:20.795Z,10.00
2023-04-12T21:28:50.334Z,9.90
2023-04-12T21:31:18.761Z,10.00
2023-04-12T21:33:46.920Z,10.00
2023-04-12T21:36:15.092Z,10.00
2023-04-12T21:38:43.271Z,9.90
2023-04-12T21:41:12.944Z,9.90
2023-04-12T21:43:41.424Z,9.90
2023-04-12T21:46:12.397Z,9.90
2023-04-12T21:48:40.779Z,9.90
2023-04-12T21:51:08.839Z,9.90
2023-04-12T21:53:36.820Z,9.80
2023-04-12T21:56:05.177Z,9.80
2023-04-12T21:58:34.170Z,9.80
2023-04-12T22:01:02.620Z,9.80
2023-04-12T22:03:32.216Z,9.80
2023-04-12T22:06:04.916Z,9.80
2023-04-12T22:08:34.276Z,9.70
2023-04-12T22:11:02.422Z,9.70
2023-04-12T22:13:30.836Z,9.70
2023-04-12T22:16:00.769Z,9.70
2023-04-12T22:18:29.653Z,9.70
2023-04-12T22:20:59.505Z,9.70
2023-04-12T22:23:27.437Z,9.70
2023-04-12T22:25:58.641Z,9.70
2023-04-12T22:28:26.738Z,9.70
2023-04-12T22:30:57.171Z,9.80
2023-04-12T22:33:25.288Z,9.60
2023-04-12T22:35:53.344Z,9.70
2023-04-12T22:38:22.798Z,9.70
2023-04-12T22:40:51.090Z,9.60
2023-04-12T22:43:20.957Z,9.60
2023-04-12T22:45:53.941Z,9.60
2023-04-12T22:48:24.973Z,9.70
2023-04-12T22:50:54.537Z,9.60
2023-04-12T22:53:25.656Z,9.60
2023-04-12T22:55:55.364Z,9.60
2023-04-12T22:58:24.008Z,9.60
2023-04-12T23:00:52.399Z,9.60
2023-04-12T23:03:21.605Z,9.60
2023-04-12T23:05:50.935Z,9.60
2023-04-12T23:08:20.151Z,9.60
2023-04-12T23:10:49.586Z,9.60
2023-04-12T23:13:17.649Z,9.60
2023-04-12T23:15:45.858Z,9.60
2023-04-12T23:18:13.969Z,9.60
2023-04-12T23:20:44.836Z,9.50
2023-04-12T23:23:13.558Z,9.60
2023-04-12T23:25:41.930Z,9.60
2023-04-12T23:28:14.023Z,9.60
2023-04-12T23:30:44.773Z,9.60
2023-04-12T23:33:12.939Z,9.60
2023-04-12T23:35:42.026Z,9.50
2023-04-12T23:38:15.488Z,9.50
2023-04-12T23:40:44.385Z,9.50
2023-04-12T23:43:13.699Z,9.60
2023-04-12T23:45:41.661Z,9.50
2023-04-12T23:48:09.721Z,9.50
2023-04-12T23:50:37.704Z,9.60
2023-04-12T23:53:06.873Z,9.60
2023-04-12T23:55:34.813Z,9.60
2023-04-12T23:58:02.740Z,9.60
